createdAt,value
2022-10-26T00:01:15.211Z,5.10
2022-10-26T00:03:43.583Z,4.03
2022-10-26T00:06:11.257Z,4.20
2022-10-26T00:08:38.031Z,5.03
2022-10-26T00:11:05.149Z,4.20
2022-10-26T00:13:31.708Z,4.43
2022-10-26T00:15:58.137Z,3.75
2022-10-26T00:18:24.949Z,4.38
2022-10-26T00:20:51.616Z,4.63
2022-10-26T00:23:18.095Z,3.70
2022-10-26T00:25:45.029Z,3.53
2022-10-26T00:28:11.412Z,4.45
2022-10-26T00:30:40.653Z,4.35
2022-10-26T00:33:10.201Z,3.90
2022-10-26T00:35:45.453Z,3.90
2022-10-26T00:38:12.232Z,4.10
2022-10-26T00:40:38.594Z,4.20
2022-10-26T00:43:14.437Z,4.57
2022-10-26T00:45:40.800Z,4.10
2022-10-26T00:48:15.921Z,5.43
2022-10-26T00:50:46.377Z,4.32
2022-10-26T00:53:13.308Z,4.32
2022-10-26T00:55:44.671Z,3.88
2022-10-26T00:58:11.811Z,4.25
2022-10-26T01:00:40.652Z,3.97
2022-10-26T01:03:08.234Z,3.85
2022-10-26T01:05:37.891Z,3.95
2022-10-26T01:08:04.746Z,4.25
2022-10-26T01:10:31.636Z,4.40
2022-10-26T01:12:59.311Z,3.85
2022-10-26T01:15:38.457Z,3.95
2022-10-26T01:18:13.020Z,4.00
2022-10-26T01:21:16.263Z,3.42
2022-10-26T01:24:08.218Z,4.55
2022-10-26T01:26:46.757Z,4.07
2022-10-26T01:29:31.244Z,3.65
2022-10-26T01:32:09.785Z,3.97
2022-10-26T01:34:44.250Z,3.45
2022-10-26T01:37:14.978Z,3.75
2022-10-26T01:39:58.266Z,3.83
2022-10-26T01:42:27.675Z,3.50
2022-10-26T01:45:02.745Z,3.60
2022-10-26T01:47:32.690Z,3.30
2022-10-26T01:50:00.923Z,3.80
2022-10-26T01:52:27.794Z,3.35
2022-10-26T01:55:06.472Z,3.78
2022-10-26T01:57:36.926Z,3.78
2022-10-26T02:00:12.081Z,3.80
2022-10-26T02:03:07.342Z,3.80
2022-10-26T02:05:51.241Z,4.18
2022-10-26T02:08:30.020Z,3.95
2022-10-26T02:11:22.673Z,3.70
2022-10-26T02:17:02.602Z,3.92
2022-10-26T02:19:29.372Z,3.70
2022-10-26T02:22:18.436Z,3.95
2022-10-26T02:24:47.055Z,3.47
2022-10-26T02:27:18.575Z,4.28
2022-10-26T02:29:47.873Z,4.38
2022-10-26T02:32:15.094Z,3.67
2022-10-26T02:34:45.868Z,3.50
2022-10-26T02:37:16.214Z,4.00
2022-10-26T02:39:45.299Z,3.35
2022-10-26T02:42:15.286Z,3.80
2022-10-26T02:44:50.040Z,3.85
2022-10-26T02:47:18.197Z,3.13
2022-10-26T02:49:44.788Z,3.90
2022-10-26T02:52:31.088Z,3.95
2022-10-26T02:55:07.986Z,3.50
2022-10-26T02:57:40.361Z,4.30
2022-10-26T03:02:46.080Z,3.72
2022-10-26T03:05:19.333Z,3.58
2022-10-26T03:07:45.794Z,3.78
2022-10-26T03:10:12.353Z,3.45
2022-10-26T03:12:39.003Z,3.90
2022-10-26T03:15:05.878Z,3.05
2022-10-26T03:17:32.253Z,3.03
2022-10-26T03:19:58.626Z,3.80
2022-10-26T03:22:25.054Z,3.30
2022-10-26T03:24:51.428Z,4.95
2022-10-26T03:27:17.921Z,4.03
2022-10-26T03:29:44.280Z,3.45
2022-10-26T03:32:10.623Z,2.90
2022-10-26T03:34:36.982Z,3.78
2022-10-26T03:37:03.426Z,3.80
2022-10-26T03:39:29.767Z,3.92
2022-10-26T03:41:56.230Z,3.95
2022-10-26T03:44:22.933Z,3.88
2022-10-26T03:46:49.456Z,3.38
2022-10-26T03:49:15.795Z,3.65
2022-10-26T03:51:42.188Z,3.85
2022-10-26T03:54:08.595Z,3.45
2022-10-26T03:56:34.933Z,3.50
2022-10-26T03:59:01.295Z,3.38
2022-10-26T04:01:27.739Z,3.80
2022-10-26T04:03:54.140Z,4.10
2022-10-26T04:06:20.567Z,3.70
2022-10-26T04:08:46.890Z,3.05
2022-10-26T04:11:13.265Z,3.35
2022-10-26T04:13:39.702Z,3.25
2022-10-26T04:16:06.270Z,3.47
2022-10-26T04:18:32.639Z,3.72
2022-10-26T04:21:02.166Z,3.65
2022-10-26T04:23:28.529Z,2.85
2022-10-26T04:25:54.870Z,3.22
2022-10-26T04:28:21.224Z,3.25
2022-10-26T04:30:47.795Z,3.67
2022-10-26T04:33:14.135Z,3.88
2022-10-26T04:35:40.612Z,3.78
2022-10-26T04:38:07.486Z,2.95
2022-10-26T04:40:34.702Z,3.30
2022-10-26T04:43:01.322Z,3.42
2022-10-26T04:45:31.116Z,3.65
2022-10-26T04:48:07.005Z,3.22
2022-10-26T04:50:33.974Z,3.45
2022-10-26T04:53:03.117Z,3.58
2022-10-26T04:55:29.591Z,3.53
2022-10-26T04:57:58.538Z,3.83
2022-10-26T05:00:28.177Z,3.80
2022-10-26T05:03:05.916Z,3.60
2022-10-26T05:05:35.098Z,3.78
2022-10-26T05:08:01.602Z,3.45
2022-10-26T05:10:28.594Z,2.90
2022-10-26T05:12:57.071Z,4.07
2022-10-26T05:15:23.750Z,3.58
2022-10-26T05:18:02.745Z,3.45
2022-10-26T05:20:31.292Z,4.32
2022-10-26T05:22:58.776Z,3.75
2022-10-26T05:25:25.758Z,4.15
2022-10-26T05:27:52.111Z,3.25
2022-10-26T05:30:18.578Z,3.50
2022-10-26T05:32:44.917Z,3.55
2022-10-26T05:35:11.468Z,4.00
2022-10-26T05:37:38.016Z,3.67
2022-10-26T05:40:04.856Z,3.42
2022-10-26T05:42:31.224Z,3.72
2022-10-26T05:44:57.609Z,3.25
2022-10-26T05:47:23.967Z,3.58
2022-10-26T05:49:50.468Z,4.00
2022-10-26T05:52:16.807Z,4.53
2022-10-26T05:54:43.269Z,3.55
2022-10-26T05:57:12.119Z,3.00
2022-10-26T05:59:38.846Z,4.30
2022-10-26T06:02:38.573Z,3.40
2022-10-26T06:05:05.829Z,4.43
2022-10-26T06:07:33.171Z,4.03
2022-10-26T06:09:59.747Z,3.28
2022-10-26T06:12:26.510Z,4.05
2022-10-26T06:14:53.205Z,3.22
2022-10-26T06:17:57.938Z,3.55
2022-10-26T06:20:44.649Z,3.08
2022-10-26T06:23:44.578Z,2.80
2022-10-26T06:26:44.903Z,4.00
2022-10-26T06:29:31.915Z,4.20
2022-10-26T06:31:58.448Z,3.97
2022-10-26T06:34:33.779Z,4.03
2022-10-26T06:37:01.142Z,3.88
2022-10-26T06:39:35.377Z,3.67
2022-10-26T06:42:02.016Z,3.80
2022-10-26T06:44:29.089Z,4.25
2022-10-26T06:47:04.419Z,3.67
2022-10-26T06:49:45.237Z,4.00
2022-10-26T06:52:14.313Z,3.50
2022-10-26T06:54:49.486Z,3.90
2022-10-26T06:57:17.779Z,3.20
2022-10-26T06:59:49.132Z,3.67
2022-10-26T07:02:15.806Z,3.22
2022-10-26T07:04:43.166Z,3.45
2022-10-26T07:07:15.446Z,3.80
2022-10-26T07:09:41.838Z,3.63
2022-10-26T07:12:08.355Z,3.15
2022-10-26T07:14:34.799Z,4.45
2022-10-26T07:17:01.778Z,3.45
2022-10-26T07:19:28.308Z,4.40
2022-10-26T07:22:00.045Z,3.72
2022-10-26T07:24:27.340Z,5.03
2022-10-26T07:26:55.314Z,4.05
2022-10-26T07:29:22.959Z,3.53
2022-10-26T07:31:49.438Z,3.92
2022-10-26T07:34:15.979Z,4.32
2022-10-26T07:36:42.405Z,4.32
2022-10-26T07:39:08.856Z,4.82
2022-10-26T07:41:35.674Z,4.15
2022-10-26T07:44:02.266Z,3.78
2022-10-26T07:46:28.721Z,3.70
2022-10-26T07:48:55.726Z,3.60
2022-10-26T07:51:22.059Z,3.67
2022-10-26T07:53:48.466Z,3.67
2022-10-26T07:56:14.989Z,4.25
2022-10-26T07:58:41.626Z,5.00
2022-10-26T08:01:17.326Z,4.80
2022-10-26T08:03:43.795Z,3.92
2022-10-26T08:06:10.585Z,5.03
2022-10-26T08:08:37.928Z,5.72
2022-10-26T08:11:05.668Z,4.10
2022-10-26T08:13:32.267Z,4.10
2022-10-26T08:16:04.323Z,4.25
2022-10-26T08:18:31.182Z,4.68
2022-10-26T08:21:11.778Z,4.47
2022-10-26T08:23:40.817Z,5.43
2022-10-26T08:26:07.597Z,4.53
2022-10-26T08:28:34.227Z,4.70
2022-10-26T08:31:00.604Z,4.85
2022-10-26T08:33:27.009Z,5.43
2022-10-26T08:35:58.683Z,5.32
2022-10-26T08:38:25.142Z,6.07
2022-10-26T08:40:52.567Z,5.32
2022-10-26T08:43:18.969Z,6.18
2022-10-26T08:45:52.510Z,5.88
2022-10-26T08:48:24.297Z,4.72
2022-10-26T08:50:55.985Z,5.00
2022-10-26T08:53:40.550Z,5.40
2022-10-26T08:56:17.836Z,5.32
2022-10-26T08:58:54.324Z,5.00
2022-10-26T09:01:22.152Z,5.80
2022-10-26T09:03:48.608Z,4.70
2022-10-26T09:06:34.861Z,4.93
2022-10-26T09:09:16.781Z,4.88
2022-10-26T09:12:11.085Z,5.28
2022-10-26T09:14:51.147Z,4.72
2022-10-26T09:17:47.487Z,5.20
2022-10-26T09:20:51.484Z,4.65
2022-10-26T09:23:54.882Z,4.97
2022-10-26T09:26:41.261Z,4.82
2022-10-26T09:29:13.270Z,5.43
2022-10-26T09:31:46.760Z,5.88
2022-10-26T09:34:25.966Z,4.65
2022-10-26T09:36:58.805Z,5.68
2022-10-26T09:39:46.418Z,5.65
2022-10-26T09:42:19.086Z,6.20
2022-10-26T09:44:55.238Z,4.15
2022-10-26T09:47:31.481Z,5.47
2022-10-26T09:50:33.790Z,4.78
2022-10-26T09:53:00.246Z,4.45
2022-10-26T09:55:27.655Z,4.07
2022-10-26T09:57:58.502Z,3.97
2022-10-26T10:00:27.177Z,4.53
2022-10-26T10:02:55.619Z,4.90
2022-10-26T10:05:50.347Z,4.65
2022-10-26T10:08:25.835Z,5.80
2022-10-26T10:10:58.703Z,4.40
2022-10-26T10:13:34.836Z,5.05
2022-10-26T10:16:12.835Z,4.90
2022-10-26T10:18:41.827Z,4.72
2022-10-26T10:21:10.247Z,5.35
2022-10-26T10:23:48.526Z,5.40
2022-10-26T10:26:15.777Z,5.10
2022-10-26T10:28:42.562Z,6.05
2022-10-26T10:31:19.690Z,5.03
2022-10-26T10:33:46.710Z,5.05
2022-10-26T10:36:22.054Z,4.90
2022-10-26T10:38:50.859Z,5.13
2022-10-26T10:41:24.355Z,6.68
2022-10-26T10:43:59.628Z,6.18
2022-10-26T10:46:27.691Z,5.07
2022-10-26T10:49:01.935Z,4.15
2022-10-26T10:51:30.585Z,5.13
2022-10-26T10:53:57.274Z,4.80
2022-10-26T10:56:49.577Z,4.30
2022-10-26T10:59:35.170Z,4.05
2022-10-26T11:02:30.347Z,4.70
2022-10-26T11:05:23.376Z,3.90
2022-10-26T11:08:01.454Z,4.22
2022-10-26T11:10:33.702Z,3.83
2022-10-26T11:13:07.117Z,3.78
2022-10-26T11:15:37.054Z,4.28
2022-10-26T11:18:14.344Z,3.67
2022-10-26T11:20:45.528Z,3.38
2022-10-26T11:23:31.965Z,3.45
2022-10-26T11:26:14.520Z,2.75
2022-10-26T11:29:02.751Z,3.47
2022-10-26T11:31:39.823Z,3.25
2022-10-26T11:34:31.426Z,3.95
2022-10-26T11:37:06.966Z,3.10
2022-10-26T11:39:46.942Z,4.72
2022-10-26T11:42:26.152Z,2.85
2022-10-26T11:45:03.947Z,3.75
2022-10-26T11:47:43.849Z,4.20
2022-10-26T11:50:19.840Z,4.22
2022-10-26T11:53:11.918Z,3.25
2022-10-26T11:55:40.150Z,3.67
2022-10-26T11:58:10.530Z,3.10
2022-10-26T12:00:51.797Z,3.25
2022-10-26T12:03:32.363Z,3.13
2022-10-26T12:05:59.025Z,3.72
2022-10-26T12:08:30.893Z,3.90
2022-10-26T12:13:47.761Z,2.80
2022-10-26T12:16:58.543Z,3.08
2022-10-26T12:19:31.970Z,3.22
2022-10-26T12:21:58.947Z,3.10
2022-10-26T12:24:28.193Z,3.35
2022-10-26T12:26:55.930Z,4.57
2022-10-26T12:29:36.812Z,2.88
2022-10-26T12:32:24.680Z,3.83
2022-10-26T12:34:51.166Z,4.35
2022-10-26T12:37:37.821Z,3.00
2022-10-26T12:40:43.530Z,3.15
2022-10-26T12:43:15.814Z,3.22
2022-10-26T12:45:44.574Z,3.22
2022-10-26T12:48:38.517Z,2.83
2022-10-26T12:51:21.830Z,2.97
2022-10-26T12:53:57.418Z,3.38
2022-10-26T12:56:36.229Z,3.20
2022-10-26T12:59:25.607Z,2.95
2022-10-26T13:02:10.860Z,3.17
2022-10-26T13:04:44.193Z,3.00
2022-10-26T13:07:20.672Z,3.10
2022-10-26T13:09:55.430Z,2.40
2022-10-26T13:12:22.273Z,3.30
2022-10-26T13:15:00.450Z,2.83
2022-10-26T13:17:31.354Z,3.10
2022-10-26T13:20:01.437Z,2.92
2022-10-26T13:22:29.001Z,3.65
2022-10-26T13:25:02.262Z,3.25
2022-10-26T13:27:34.653Z,2.90
2022-10-26T13:30:05.292Z,3.92
2022-10-26T13:32:40.342Z,3.30
2022-10-26T13:35:13.274Z,2.80
2022-10-26T13:40:18.250Z,2.92
2022-10-26T13:42:56.334Z,2.85
2022-10-26T13:45:27.403Z,3.38
2022-10-26T13:48:07.799Z,3.05
2022-10-26T13:50:49.728Z,2.80
2022-10-26T13:53:41.125Z,3.30
2022-10-26T13:56:20.122Z,2.65
2022-10-26T13:58:52.821Z,4.57
2022-10-26T14:01:26.133Z,3.15
2022-10-26T14:03:52.580Z,2.85
2022-10-26T14:06:31.837Z,3.17
2022-10-26T14:09:06.942Z,3.08
2022-10-26T14:11:36.807Z,2.70
2022-10-26T14:14:04.441Z,2.67
2022-10-26T14:16:34.206Z,2.78
2022-10-26T14:19:01.075Z,2.63
2022-10-26T14:21:27.818Z,3.08
2022-10-26T14:23:57.410Z,2.97
2022-10-26T14:26:28.469Z,3.22
2022-10-26T14:29:00.535Z,3.10
2022-10-26T14:31:32.293Z,2.47
2022-10-26T14:34:01.488Z,3.35
2022-10-26T14:36:45.833Z,2.50
2022-10-26T14:39:43.900Z,2.25
2022-10-26T14:42:27.764Z,2.47
2022-10-26T14:44:54.919Z,3.05
2022-10-26T14:47:26.843Z,2.72
2022-10-26T14:49:54.169Z,2.42
2022-10-26T14:52:30.331Z,2.45
2022-10-26T14:55:14.245Z,3.20
2022-10-26T14:57:43.051Z,2.35
2022-10-26T15:00:24.373Z,2.30
2022-10-26T15:05:34.623Z,1.52
2022-10-26T15:08:03.097Z,2.10
2022-10-26T15:10:35.677Z,2.40
2022-10-26T15:13:31.170Z,2.17
2022-10-26T15:16:10.226Z,2.30
2022-10-26T15:18:38.559Z,4.75
2022-10-26T15:21:21.302Z,5.38
2022-10-26T15:23:47.860Z,4.20
2022-10-26T15:26:14.298Z,3.83
2022-10-26T15:28:44.874Z,2.85
2022-10-26T15:31:11.197Z,2.10
2022-10-26T15:33:40.234Z,2.55
2022-10-26T15:36:12.350Z,2.22
2022-10-26T15:38:38.753Z,3.35
2022-10-26T15:41:13.194Z,3.42
2022-10-26T15:43:39.597Z,3.58
2022-10-26T15:46:06.062Z,3.35
2022-10-26T15:48:34.209Z,2.90
2022-10-26T15:51:00.661Z,2.97
2022-10-26T15:53:27.528Z,2.88
2022-10-26T15:55:56.118Z,2.17
2022-10-26T15:58:23.357Z,2.13
2022-10-26T16:00:50.120Z,2.75
2022-10-26T16:03:20.549Z,2.42
2022-10-26T16:05:48.773Z,2.88
2022-10-26T16:08:18.286Z,2.42
2022-10-26T16:10:45.425Z,2.15
2022-10-26T16:13:15.587Z,1.98
2022-10-26T16:15:42.327Z,2.25
2022-10-26T16:18:08.792Z,2.00
2022-10-26T16:20:35.772Z,2.42
2022-10-26T16:23:06.505Z,2.83
2022-10-26T16:25:40.056Z,2.17
2022-10-26T16:28:06.514Z,2.08
2022-10-26T16:30:33.075Z,2.20
2022-10-26T16:32:59.602Z,2.50
2022-10-26T16:35:26.030Z,2.50
2022-10-26T16:37:52.469Z,2.83
2022-10-26T16:40:18.915Z,2.45
2022-10-26T16:42:46.348Z,2.72
2022-10-26T16:45:14.357Z,3.92
2022-10-26T16:47:41.201Z,3.97
2022-10-26T16:50:10.398Z,4.45
2022-10-26T16:52:37.824Z,3.63
2022-10-26T16:55:06.260Z,2.75
2022-10-26T16:57:33.262Z,2.40
2022-10-26T16:59:59.643Z,2.25
2022-10-26T17:02:26.197Z,2.80
2022-10-26T17:04:52.705Z,2.92
2022-10-26T17:07:19.070Z,2.63
2022-10-26T17:09:45.516Z,2.42
2022-10-26T17:12:12.017Z,2.67
2022-10-26T17:14:38.417Z,2.95
2022-10-26T17:17:04.950Z,2.22
2022-10-26T17:19:31.403Z,3.95
2022-10-26T17:21:58.865Z,3.72
2022-10-26T17:24:25.204Z,3.45
2022-10-26T17:26:51.615Z,3.90
2022-10-26T17:29:18.021Z,3.80
2022-10-26T17:31:44.514Z,4.18
2022-10-26T17:34:10.998Z,4.90
2022-10-26T17:36:37.456Z,4.38
2022-10-26T17:39:03.936Z,4.88
2022-10-26T17:41:30.285Z,5.50
2022-10-26T17:43:56.851Z,5.28
2022-10-26T17:46:25.688Z,4.82
2022-10-26T17:48:59.977Z,5.03
2022-10-26T17:51:28.401Z,4.75
2022-10-26T17:53:55.235Z,5.20
2022-10-26T17:56:30.572Z,5.13
2022-10-26T17:59:02.102Z,4.82
2022-10-26T18:01:29.330Z,3.80
2022-10-26T18:03:55.963Z,4.72
2022-10-26T18:06:23.271Z,4.57
2022-10-26T18:08:49.873Z,4.72
2022-10-26T18:11:25.277Z,5.47
2022-10-26T18:13:57.127Z,4.82
2022-10-26T18:16:26.131Z,5.88
2022-10-26T18:19:04.287Z,5.10
2022-10-26T18:21:33.573Z,4.75
2022-10-26T18:23:59.966Z,4.18
2022-10-26T18:26:28.759Z,4.00
2022-10-26T18:28:56.324Z,4.10
2022-10-26T18:31:24.119Z,4.25
2022-10-26T18:33:56.076Z,4.30
2022-10-26T18:36:23.381Z,4.43
2022-10-26T18:38:49.813Z,4.05
2022-10-26T18:41:21.216Z,5.20
2022-10-26T18:43:51.647Z,4.53
2022-10-26T18:46:21.546Z,4.50
2022-10-26T18:48:48.812Z,4.25
2022-10-26T18:51:19.101Z,4.20
2022-10-26T18:53:46.908Z,4.40
2022-10-26T18:56:18.716Z,4.68
2022-10-26T18:58:50.111Z,4.68
2022-10-26T19:01:24.791Z,5.93
2022-10-26T19:03:57.109Z,4.90
2022-10-26T19:06:26.762Z,4.22
2022-10-26T19:08:54.232Z,4.25
2022-10-26T19:11:22.728Z,4.32
2022-10-26T19:13:55.029Z,4.10
2022-10-26T19:16:44.588Z,4.88
2022-10-26T19:19:10.802Z,4.50
2022-10-26T19:21:37.513Z,4.75
2022-10-26T19:24:04.178Z,4.20
2022-10-26T19:26:36.814Z,4.78
2022-10-26T19:29:06.660Z,5.07
2022-10-26T19:31:35.502Z,3.30
2022-10-26T19:34:02.623Z,4.00
2022-10-26T19:36:29.697Z,3.63
2022-10-26T19:38:56.218Z,4.30
2022-10-26T19:41:23.860Z,5.50
2022-10-26T19:43:50.928Z,5.65
2022-10-26T19:46:21.103Z,3.88
2022-10-26T19:48:50.169Z,3.30
2022-10-26T19:51:26.749Z,3.58
2022-10-26T19:53:57.902Z,3.50
2022-10-26T19:56:27.062Z,3.35
2022-10-26T19:58:54.038Z,3.28
2022-10-26T20:01:20.676Z,3.58
2022-10-26T20:03:47.304Z,3.03
2022-10-26T20:06:13.984Z,3.53
2022-10-26T20:08:42.617Z,3.00
2022-10-26T20:11:13.271Z,2.65
2022-10-26T20:16:09.654Z,3.22
2022-10-26T20:18:36.159Z,3.33
2022-10-26T20:21:10.042Z,3.78
2022-10-26T20:23:37.100Z,3.60
2022-10-26T20:26:03.595Z,3.40
2022-10-26T20:28:30.790Z,3.10
2022-10-26T20:30:59.355Z,3.47
2022-10-26T20:33:26.640Z,4.00
2022-10-26T20:36:00.796Z,4.25
2022-10-26T20:38:27.846Z,4.10
2022-10-26T20:40:59.037Z,3.17
2022-10-26T20:43:27.419Z,3.40
2022-10-26T20:45:55.983Z,3.78
2022-10-26T20:48:23.715Z,3.42
2022-10-26T20:51:04.845Z,3.30
2022-10-26T20:53:38.335Z,3.45
2022-10-26T20:56:07.125Z,3.78
2022-10-26T20:58:43.535Z,3.60
2022-10-26T21:01:24.666Z,3.60
2022-10-26T21:03:56.752Z,4.30
2022-10-26T21:06:26.263Z,3.28
2022-10-26T21:08:55.132Z,5.25
2022-10-26T21:11:23.734Z,4.07
2022-10-26T21:13:52.187Z,3.50
2022-10-26T21:16:18.962Z,3.72
2022-10-26T21:18:45.694Z,3.30
2022-10-26T21:21:12.856Z,4.65
2022-10-26T21:23:41.814Z,4.53
2022-10-26T21:29:42.704Z,3.00
2022-10-26T21:32:09.971Z,2.33
2022-10-26T21:34:41.109Z,3.30
2022-10-26T21:37:08.676Z,2.88
2022-10-26T21:39:35.282Z,3.00
2022-10-26T21:42:03.068Z,3.20
2022-10-26T21:44:44.822Z,3.35
2022-10-26T21:47:12.565Z,2.83
2022-10-26T21:52:07.300Z,3.67
2022-10-26T21:54:33.655Z,3.20
2022-10-26T21:57:00.038Z,3.30
2022-10-26T21:59:26.393Z,4.93
2022-10-26T22:01:52.865Z,3.42
2022-10-26T22:04:19.328Z,2.97
2022-10-26T22:06:45.713Z,3.40
2022-10-26T22:09:12.070Z,3.65
2022-10-26T22:11:38.461Z,3.60
2022-10-26T22:14:04.826Z,3.88
2022-10-26T22:16:32.782Z,3.20
2022-10-26T22:19:03.504Z,3.03
2022-10-26T22:21:36.661Z,2.53
2022-10-26T22:24:03.397Z,3.45
2022-10-26T22:26:29.919Z,2.92
2022-10-26T22:28:56.995Z,2.95
2022-10-26T22:31:26.255Z,3.17
2022-10-26T22:33:54.241Z,3.28
2022-10-26T22:36:21.190Z,2.97
2022-10-26T22:38:48.729Z,2.63
2022-10-26T22:41:16.298Z,2.65
2022-10-26T22:43:42.728Z,2.70
2022-10-26T22:46:17.804Z,3.08
2022-10-26T22:48:45.413Z,3.20
2022-10-26T22:51:14.501Z,2.50
2022-10-26T22:53:41.458Z,2.40
2022-10-26T22:56:09.531Z,3.22
2022-10-26T22:58:36.453Z,3.20
2022-10-26T23:01:08.195Z,3.10
2022-10-26T23:03:35.161Z,3.70
2022-10-26T23:06:02.698Z,2.45
2022-10-26T23:08:29.302Z,3.25
2022-10-26T23:11:00.657Z,3.47
2022-10-26T23:13:27.724Z,3.50
2022-10-26T23:15:54.352Z,4.15
2022-10-26T23:18:20.965Z,3.63
2022-10-26T23:20:51.447Z,3.00
2022-10-26T23:23:18.246Z,3.22
2022-10-26T23:25:44.766Z,2.70
2022-10-26T23:28:11.324Z,2.90
2022-10-26T23:30:37.754Z,3.38
2022-10-26T23:33:04.176Z,3.28
2022-10-26T23:35:30.681Z,2.80
2022-10-26T23:37:58.569Z,3.60
2022-10-26T23:40:26.086Z,2.33
2022-10-26T23:42:52.802Z,3.13
2022-10-26T23:45:19.426Z,2.80
2022-10-26T23:47:45.818Z,3.05
2022-10-26T23:50:12.238Z,3.45
2022-10-26T23:52:38.832Z,3.42
2022-10-26T23:55:05.663Z,3.30
2022-10-26T23:57:32.008Z,3.90
2022-10-26T23:59:58.374Z,3.08
